Time;durP1;ratioP1;P1;durP2;ratioP2;P2;SDS_P1;SDS_P2;PMS_P1;PMS_P2;Temp;Humidity;BMP_temperature;BMP_pressure;BME280_temperature;BME280_humidity;BME280_pressure;Samples;Min_cycle;Max_cycle;Signal;HPM_P1;HPM_P2
2023/03/25 00:00:12;;;;;;;4.60;3.40;;;;;;;;;;5079865;28;20265;-64
2023/03/25 00:02:40;;;;;;;6.43;2.77;;;;;;;;;;5080049;28;20252;-64
2023/03/25 00:05:11;;;;;;;8.67;3.00;;;;;;;;;;5080113;28;20238;-64
2023/03/25 00:07:39;;;;;;;5.53;2.63;;;;;;;;;;5080016;28;20719;-64
2023/03/25 00:10:08;;;;;;;4.87;3.00;;;;;;;;;;5079776;28;20329;-64
2023/03/25 00:12:36;;;;;;;7.43;2.67;;;;;;;;;;5079853;28;20210;-64
2023/03/25 00:15:04;;;;;;;8.67;2.87;;;;;;;;;;5079572;28;20669;-64
2023/03/25 00:17:32;;;;;;;5.77;2.97;;;;;;;;;;5079579;28;20655;-64
2023/03/25 00:20:03;;;;;;;6.50;3.17;;;;;;;;;;5079921;28;20226;-64
2023/03/25 00:22:35;;;;;;;5.97;2.90;;;;;;;;;;5079686;28;20266;-65
2023/03/25 00:25:03;;;;;;;7.53;3.37;;;;;;;;;;5079618;28;20237;-64
2023/03/25 00:27:31;;;;;;;6.07;3.20;;;;;;;;;;5079814;28;20241;-64
2023/03/25 00:29:59;;;;;;;5.50;2.77;;;;;;;;;;5079355;28;20721;-64
2023/03/25 00:32:28;;;;;;;5.70;2.93;;;;;;;;;;5079703;28;20210;-64
2023/03/25 00:34:56;;;;;;;6.47;3.43;;;;;;;;;;5079547;28;20688;-64
2023/03/25 00:37:24;;;;;;;6.80;3.00;;;;;;;;;;5079394;28;20229;-64
2023/03/25 00:39:53;;;;;;;9.07;4.07;;;;;;;;;;5080577;28;20593;-64
2023/03/25 00:42:24;;;;;;;7.20;3.80;;;;;;;;;;5076616;28;20202;-64
2023/03/25 00:44:53;;;;;;;6.57;3.30;;;;;;;;;;5077699;28;20552;-64
2023/03/25 00:47:21;;;;;;;7.17;2.93;;;;;;;;;;5079184;28;20222;-64
2023/03/25 00:49:50;;;;;;;6.07;3.20;;;;;;;;;;5080069;28;20226;-64
2023/03/25 00:52:21;;;;;;;4.37;2.90;;;;;;;;;;5079247;28;20293;-64
2023/03/25 00:54:51;;;;;;;13.03;5.90;;;;;;;;;;5078762;28;20206;-64
2023/03/25 00:57:21;;;;;;;8.97;5.63;;;;;;;;;;5078682;28;20228;-64
2023/03/25 00:59:49;;;;;;;51.73;23.30;;;;;;;;;;5078209;28;20228;-64
2023/03/25 01:02:20;;;;;;;10.70;6.77;;;;;;;;;;5083274;28;20204;-64
2023/03/25 01:04:50;;;;;;;13.30;7.50;;;;;;;;;;5088234;28;20206;-64
2023/03/25 01:07:19;;;;;;;6.97;3.60;;;;;;;;;;5084497;28;20212;-64
2023/03/25 01:09:48;;;;;;;5.60;2.43;;;;;;;;;;5087112;28;20763;-64
2023/03/25 01:12:17;;;;;;;3.10;2.20;;;;;;;;;;5089066;28;20198;-64
2023/03/25 01:14:47;;;;;;;3.93;2.80;;;;;;;;;;5087544;28;20198;-64
2023/03/25 01:17:15;;;;;;;5.20;2.67;;;;;;;;;;5086396;28;20198;-64
2023/03/25 01:19:43;;;;;;;4.50;2.80;;;;;;;;;;5087542;28;20260;-64
2023/03/25 01:22:11;;;;;;;4.50;2.90;;;;;;;;;;5088634;28;20229;-64
2023/03/25 01:24:39;;;;;;;4.30;2.60;;;;;;;;;;5084067;28;20198;-64
2023/03/25 01:27:07;;;;;;;3.30;2.47;;;;;;;;;;5087176;28;20675;-64
2023/03/25 01:29:36;;;;;;;5.23;2.10;;;;;;;;;;5087908;28;20579;-64
2023/03/25 01:32:05;;;;;;;7.63;2.07;;;;;;;;;;5087160;28;20205;-64
2023/03/25 01:34:37;;;;;;;4.40;1.83;;;;;;;;;;5086226;28;20293;-64
2023/03/25 01:37:06;;;;;;;6.50;1.80;;;;;;;;;;5085000;28;20203;-64
2023/03/25 01:39:34;;;;;;;5.73;2.10;;;;;;;;;;5077867;28;20286;-64
2023/03/25 01:42:02;;;;;;;3.33;1.33;;;;;;;;;;5078027;28;20289;-64
2023/03/25 01:44:56;;;;;;;5.10;1.83;;;;;;;;;;5077870;28;20210;-63
2023/03/25 01:47:26;;;;;;;4.83;1.47;;;;;;;;;;5063858;28;20210;-64
2023/03/25 01:49:54;;;;;;;6.50;1.80;;;;;;;;;;5077930;28;20234;-63
2023/03/25 01:52:24;;;;;;;2.93;1.90;;;;;;;;;;5077729;28;20772;-63
2023/03/25 01:54:53;;;;;;;5.57;1.97;;;;;;;;;;5067311;28;20658;-63
2023/03/25 01:57:22;;;;;;;3.90;2.07;;;;;;;;;;5078154;28;20214;-63
2023/03/25 01:59:50;;;;;;;4.27;1.70;;;;;;;;;;5077481;28;20276;-63
2023/03/25 02:02:19;;;;;;;3.87;2.13;;;;;;;;;;5077979;28;20210;-64
2023/03/25 02:04:57;;;;;;;3.50;1.93;;;;;;;;;;5077852;28;20236;-63
2023/03/25 02:07:29;;;;;;;5.77;2.03;;;;;;;;;;5078135;28;20202;-63
2023/03/25 02:09:58;;;;;;;4.33;2.30;;;;;;;;;;5077802;28;20269;-63
2023/03/25 02:12:26;;;;;;;2.43;2.03;;;;;;;;;;5077774;28;20218;-63
2023/03/25 02:14:54;;;;;;;5.13;1.93;;;;;;;;;;5077587;28;20220;-64
2023/03/25 02:17:27;;;;;;;2.87;2.13;;;;;;;;;;5077194;28;20217;-63
2023/03/25 02:20:09;;;;;;;4.97;2.27;;;;;;;;;;5077829;28;20230;-63
2023/03/25 02:22:56;;;;;;;3.07;2.53;;;;;;;;;;5077926;28;20573;-63
2023/03/25 02:25:53;;;;;;;4.73;2.13;;;;;;;;;;5077597;28;20233;-63
2023/03/25 02:28:28;;;;;;;2.07;1.73;;;;;;;;;;5077594;28;20202;-63
2023/03/25 02:31:05;;;;;;;3.77;2.10;;;;;;;;;;5077674;28;20408;-63
2023/03/25 02:33:52;;;;;;;7.70;2.60;;;;;;;;;;5077798;28;20284;-63
2023/03/25 02:36:35;;;;;;;3.60;2.63;;;;;;;;;;5077467;28;20289;-63
2023/03/25 02:39:05;;;;;;;8.30;2.33;;;;;;;;;;5077607;28;20226;-63
2023/03/25 02:41:36;;;;;;;4.93;2.20;;;;;;;;;;5077448;28;20256;-63
2023/03/25 02:44:06;;;;;;;3.67;1.90;;;;;;;;;;5077314;28;20640;-63
2023/03/25 02:46:35;;;;;;;3.83;2.27;;;;;;;;;;5077598;28;20285;-63
2023/03/25 02:49:05;;;;;;;2.30;1.87;;;;;;;;;;5077659;28;20210;-63
2023/03/25 02:51:35;;;;;;;6.90;2.70;;;;;;;;;;5077294;28;20217;-63
2023/03/25 02:54:07;;;;;;;5.23;2.50;;;;;;;;;;5077348;28;20288;-63
2023/03/25 02:56:37;;;;;;;3.97;2.67;;;;;;;;;;5077320;28;20237;-63
2023/03/25 02:59:05;;;;;;;4.70;2.43;;;;;;;;;;5076920;28;20265;-63
2023/03/25 03:01:33;;;;;;;9.53;2.93;;;;;;;;;;5077472;28;20289;-63
2023/03/25 03:04:01;;;;;;;4.87;2.30;;;;;;;;;;5077278;28;20210;-63
2023/03/25 03:06:29;;;;;;;5.20;3.03;;;;;;;;;;5077219;28;20269;-63
2023/03/25 03:09:12;;;;;;;8.50;2.50;;;;;;;;;;5077412;28;20267;-63
2023/03/25 03:11:46;;;;;;;3.00;2.23;;;;;;;;;;5075341;28;20650;-63
2023/03/25 03:14:31;;;;;;;6.57;3.40;;;;;;;;;;5077274;28;20288;-63
2023/03/25 03:17:03;;;;;;;3.57;2.37;;;;;;;;;;5077119;28;20260;-63
2023/03/25 03:19:36;;;;;;;8.23;2.97;;;;;;;;;;5076896;28;20708;-63
2023/03/25 03:22:15;;;;;;;5.13;2.20;;;;;;;;;;5077392;28;20225;-63
2023/03/25 03:24:47;;;;;;;3.27;2.50;;;;;;;;;;5077097;28;20643;-63
2023/03/25 03:27:22;;;;;;;6.07;2.60;;;;;;;;;;5077140;28;20550;-63
2023/03/25 03:29:52;;;;;;;4.23;1.83;;;;;;;;;;5079618;28;20227;-63
2023/03/25 03:32:23;;;;;;;2.63;1.60;;;;;;;;;;5081005;28;20650;-63
2023/03/25 03:34:53;;;;;;;3.90;2.07;;;;;;;;;;5080859;28;20234;-63
2023/03/25 03:37:23;;;;;;;5.07;1.87;;;;;;;;;;5080693;28;20256;-63
2023/03/25 03:39:52;;;;;;;4.10;2.10;;;;;;;;;;5080687;28;20283;-63
2023/03/25 03:42:23;;;;;;;7.83;1.80;;;;;;;;;;5080460;28;20562;-63
2023/03/25 03:44:54;;;;;;;4.27;2.10;;;;;;;;;;5080272;28;20202;-63
2023/03/25 03:47:25;;;;;;;5.67;1.93;;;;;;;;;;5080276;28;20572;-63
2023/03/25 03:49:54;;;;;;;4.03;1.80;;;;;;;;;;5080270;28;20276;-63
2023/03/25 03:52:25;;;;;;;4.00;2.13;;;;;;;;;;5080235;28;20693;-63
2023/03/25 03:54:55;;;;;;;4.10;2.67;;;;;;;;;;5073058;28;20274;-63
2023/03/25 03:57:27;;;;;;;4.73;2.40;;;;;;;;;;5077143;28;20233;-63
2023/03/25 03:59:57;;;;;;;7.23;2.17;;;;;;;;;;5079865;28;20237;-63
2023/03/25 04:02:28;;;;;;;3.43;2.00;;;;;;;;;;5079937;28;20688;-63
2023/03/25 04:04:59;;;;;;;3.57;1.50;;;;;;;;;;5080164;28;20296;-64
2023/03/25 04:07:37;;;;;;;3.03;2.03;;;;;;;;;;5080287;28;20263;-63
2023/03/25 04:10:13;;;;;;;4.37;1.80;;;;;;;;;;5079726;28;20241;-63
2023/03/25 04:12:44;;;;;;;3.40;1.60;;;;;;;;;;5080027;28;20237;-63
2023/03/25 04:15:12;;;;;;;5.20;1.67;;;;;;;;;;5079981;28;20202;-63
2023/03/25 04:17:41;;;;;;;4.17;1.80;;;;;;;;;;5080067;28;20238;-63
2023/03/25 04:20:12;;;;;;;2.90;1.60;;;;;;;;;;5079552;28;20236;-62
2023/03/25 04:22:44;;;;;;;3.37;1.50;;;;;;;;;;5080076;28;20289;-63
2023/03/25 04:25:13;;;;;;;2.27;1.63;;;;;;;;;;5079667;28;20657;-63
2023/03/25 04:27:44;;;;;;;3.60;1.50;;;;;;;;;;5079961;28;20246;-63
2023/03/25 04:30:12;;;;;;;4.73;1.40;;;;;;;;;;5079419;28;20254;-63
2023/03/25 04:32:40;;;;;;;4.87;1.67;;;;;;;;;;5079680;28;20238;-63
2023/03/25 04:35:08;;;;;;;2.13;1.40;;;;;;;;;;5079826;28;20271;-62
2023/03/25 04:37:37;;;;;;;3.03;1.83;;;;;;;;;;5079473;28;20578;-63
2023/03/25 04:40:07;;;;;;;3.00;1.60;;;;;;;;;;5078972;28;20228;-63
2023/03/25 04:42:36;;;;;;;5.97;2.00;;;;;;;;;;5079407;28;20238;-63
2023/03/25 04:45:06;;;;;;;3.23;1.87;;;;;;;;;;5079392;28;20206;-63
2023/03/25 04:47:34;;;;;;;8.63;2.87;;;;;;;;;;5077172;28;20210;-63
2023/03/25 04:50:02;;;;;;;4.57;1.60;;;;;;;;;;5076960;28;20758;-63
2023/03/25 04:52:30;;;;;;;5.00;2.00;;;;;;;;;;5079062;28;20202;-63
2023/03/25 04:54:58;;;;;;;9.43;2.10;;;;;;;;;;5079224;28;20281;-63
2023/03/25 04:57:25;;;;;;;2.47;1.80;;;;;;;;;;5072183;28;20236;-63
2023/03/25 04:59:53;;;;;;;7.47;2.20;;;;;;;;;;5078663;28;20226;-63
2023/03/25 05:02:23;;;;;;;5.20;1.80;;;;;;;;;;5079095;28;20226;-63
2023/03/25 05:04:52;;;;;;;7.00;2.00;;;;;;;;;;5078710;28;20202;-63
2023/03/25 05:07:20;;;;;;;3.03;2.13;;;;;;;;;;5078811;28;20202;-63
2023/03/25 05:09:48;;;;;;;3.90;1.90;;;;;;;;;;5078540;28;20234;-63
2023/03/25 05:12:16;;;;;;;5.77;1.67;;;;;;;;;;5078989;28;20206;-63
2023/03/25 05:14:44;;;;;;;2.30;1.70;;;;;;;;;;5078223;28;20617;-63
2023/03/25 05:17:12;;;;;;;5.93;1.77;;;;;;;;;;5078386;28;20692;-63
2023/03/25 05:19:42;;;;;;;3.73;1.80;;;;;;;;;;5078407;28;20705;-63
2023/03/25 05:22:11;;;;;;;4.97;1.70;;;;;;;;;;5078688;28;20233;-63
2023/03/25 05:24:44;;;;;;;4.00;1.40;;;;;;;;;;5078854;28;20270;-62
2023/03/25 05:27:12;;;;;;;1.83;1.73;;;;;;;;;;5078554;28;20573;-62
2023/03/25 05:29:39;;;;;;;4.00;1.60;;;;;;;;;;5078344;28;20305;-63
2023/03/25 05:32:07;;;;;;;3.53;1.70;;;;;;;;;;5078351;28;20213;-63
2023/03/25 05:34:37;;;;;;;3.67;1.60;;;;;;;;;;5078364;28;20663;-63
2023/03/25 05:37:06;;;;;;;5.27;1.60;;;;;;;;;;5078295;28;20225;-63
2023/03/25 05:39:34;;;;;;;3.50;1.20;;;;;;;;;;5078365;28;20254;-63
2023/03/25 05:42:02;;;;;;;3.83;1.33;;;;;;;;;;5078399;28;20237;-63
2023/03/25 05:44:30;;;;;;;2.37;1.50;;;;;;;;;;5077915;28;20213;-63
2023/03/25 05:47:00;;;;;;;2.30;1.20;;;;;;;;;;5078047;28;20217;-63
2023/03/25 05:49:28;;;;;;;6.20;1.40;;;;;;;;;;5077968;28;20234;-63
2023/03/25 05:51:56;;;;;;;4.60;1.50;;;;;;;;;;5077196;28;20259;-63
2023/03/25 05:54:27;;;;;;;5.03;1.37;;;;;;;;;;5077979;28;20289;-63
2023/03/25 05:56:55;;;;;;;2.90;1.60;;;;;;;;;;5067729;28;20213;-63
2023/03/25 05:59:23;;;;;;;1.77;1.10;;;;;;;;;;5077705;28;20223;-63
2023/03/25 06:01:51;;;;;;;3.80;1.40;;;;;;;;;;5078128;28;20322;-63
2023/03/25 06:04:20;;;;;;;4.97;1.53;;;;;;;;;;5077966;28;20206;-63
2023/03/25 06:06:48;;;;;;;2.97;1.20;;;;;;;;;;5078034;28;20210;-63
2023/03/25 06:09:17;;;;;;;4.07;1.40;;;;;;;;;;5077933;28;20230;-63
2023/03/25 06:11:52;;;;;;;4.80;1.50;;;;;;;;;;5078034;28;20202;-63
2023/03/25 06:14:24;;;;;;;2.67;1.50;;;;;;;;;;5077540;28;20235;-63
2023/03/25 06:16:52;;;;;;;1.60;1.40;;;;;;;;;;5067033;28;20237;-63
2023/03/25 06:19:25;;;;;;;3.07;1.40;;;;;;;;;;5077585;28;20232;-63
2023/03/25 06:21:53;;;;;;;2.00;1.27;;;;;;;;;;5077523;28;20313;-63
2023/03/25 06:24:21;;;;;;;4.27;1.63;;;;;;;;;;5077504;28;20207;-63
2023/03/25 06:26:50;;;;;;;1.53;1.23;;;;;;;;;;5077620;28;20202;-63
2023/03/25 06:29:18;;;;;;;2.13;1.20;;;;;;;;;;5076699;28;20226;-62
2023/03/25 06:31:46;;;;;;;1.57;1.47;;;;;;;;;;5076677;28;20229;-63
2023/03/25 06:34:14;;;;;;;1.93;1.10;;;;;;;;;;5077513;28;20205;-62
2023/03/25 06:36:42;;;;;;;5.20;1.33;;;;;;;;;;5077537;28;20293;-62
2023/03/25 06:39:10;;;;;;;1.73;1.10;;;;;;;;;;5077168;28;20216;-62
2023/03/25 06:41:38;;;;;;;3.63;1.13;;;;;;;;;;5077501;28;20230;-62
2023/03/25 06:44:08;;;;;;;3.80;1.10;;;;;;;;;;5077044;28;20570;-65
2023/03/25 06:46:36;;;;;;;3.77;1.53;;;;;;;;;;5077443;28;20206;-66
2023/03/25 06:49:04;;;;;;;3.53;1.20;;;;;;;;;;5077368;28;20206;-66
2023/03/25 06:51:32;;;;;;;3.07;1.50;;;;;;;;;;5084024;28;20202;-66
2023/03/25 06:54:00;;;;;;;3.07;1.40;;;;;;;;;;5097617;28;20209;-66
2023/03/25 06:56:28;;;;;;;9.47;1.30;;;;;;;;;;5084233;28;20293;-66
2023/03/25 06:58:56;;;;;;;1.97;1.20;;;;;;;;;;5076833;28;20205;-66
2023/03/25 07:01:25;;;;;;;4.10;1.83;;;;;;;;;;5077063;28;20244;-68
2023/03/25 07:03:53;;;;;;;2.80;1.40;;;;;;;;;;5078300;28;20212;-64
2023/03/25 07:06:22;;;;;;;1.47;0.83;;;;;;;;;;5080986;28;20691;-63
2023/03/25 07:08:50;;;;;;;2.73;1.40;;;;;;;;;;5081235;28;20245;-63
2023/03/25 07:11:22;;;;;;;2.63;1.30;;;;;;;;;;5080607;28;20234;-63
2023/03/25 07:13:52;;;;;;;3.10;1.00;;;;;;;;;;5080583;28;20896;-63
2023/03/25 07:16:21;;;;;;;3.70;1.77;;;;;;;;;;5080698;28;20229;-63
2023/03/25 07:18:50;;;;;;;4.63;1.70;;;;;;;;;;5080926;28;20212;-64
2023/03/25 07:21:19;;;;;;;2.20;1.27;;;;;;;;;;5080760;28;20237;-64
2023/03/25 07:23:47;;;;;;;3.80;1.80;;;;;;;;;;5080952;28;20279;-64
2023/03/25 07:26:15;;;;;;;3.00;1.13;;;;;;;;;;5080891;28;20214;-63
2023/03/25 07:28:43;;;;;;;15.23;7.40;;;;;;;;;;5080796;28;20216;-64
2023/03/25 07:31:12;;;;;;;5.33;1.90;;;;;;;;;;5080385;28;20630;-63
2023/03/25 07:33:40;;;;;;;3.00;1.47;;;;;;;;;;5080636;28;20613;-63
2023/03/25 07:36:11;;;;;;;2.23;1.30;;;;;;;;;;5080692;28;20202;-64
2023/03/25 07:38:39;;;;;;;6.23;1.90;;;;;;;;;;5080607;28;20658;-63
2023/03/25 07:41:08;;;;;;;1.67;1.30;;;;;;;;;;5080343;28;20661;-64
2023/03/25 07:43:36;;;;;;;1.47;0.93;;;;;;;;;;5080448;28;20241;-64
2023/03/25 07:46:04;;;;;;;2.67;1.00;;;;;;;;;;5080640;28;20209;-64
2023/03/25 07:48:32;;;;;;;2.37;1.10;;;;;;;;;;5080607;28;20206;-63
2023/03/25 07:51:00;;;;;;;4.80;1.00;;;;;;;;;;5080552;28;20314;-64
2023/03/25 07:53:29;;;;;;;2.30;1.17;;;;;;;;;;5080510;28;20228;-63
2023/03/25 07:55:57;;;;;;;2.17;0.93;;;;;;;;;;5080256;28;20241;-63
2023/03/25 07:58:25;;;;;;;2.20;0.80;;;;;;;;;;5080175;28;20233;-63
2023/03/25 08:00:56;;;;;;;1.40;1.00;;;;;;;;;;5080169;28;20313;-63
2023/03/25 08:03:24;;;;;;;2.77;0.93;;;;;;;;;;5080351;28;20211;-63
2023/03/25 08:05:52;;;;;;;2.30;1.00;;;;;;;;;;5080141;28;20212;-62
2023/03/25 08:08:20;;;;;;;2.80;1.00;;;;;;;;;;5080468;28;20221;-63
2023/03/25 08:10:51;;;;;;;3.00;1.33;;;;;;;;;;5079858;28;20242;-62
2023/03/25 08:13:19;;;;;;;1.97;1.07;;;;;;;;;;5079962;28;20244;-64
2023/03/25 08:15:47;;;;;;;3.53;1.17;;;;;;;;;;5078764;28;20207;-64
2023/03/25 08:18:15;;;;;;;2.87;1.07;;;;;;;;;;5079823;28;20202;-63
2023/03/25 08:20:43;;;;;;;3.17;1.00;;;;;;;;;;5079867;28;20266;-63
2023/03/25 08:23:11;;;;;;;3.67;1.20;;;;;;;;;;5080042;28;20313;-63
2023/03/25 08:25:39;;;;;;;3.23;0.93;;;;;;;;;;5080000;28;20210;-63
2023/03/25 08:28:09;;;;;;;2.53;0.87;;;;;;;;;;5079696;28;20289;-63
2023/03/25 08:30:38;;;;;;;4.27;0.80;;;;;;;;;;5079773;28;20222;-63
2023/03/25 08:33:07;;;;;;;1.37;0.97;;;;;;;;;;5079525;28;20684;-64
2023/03/25 08:35:35;;;;;;;4.00;1.10;;;;;;;;;;5079765;28;20206;-63
2023/03/25 08:38:05;;;;;;;5.80;1.20;;;;;;;;;;5079591;28;20233;-62
2023/03/25 08:40:34;;;;;;;1.67;0.90;;;;;;;;;;5079298;28;20222;-62
2023/03/25 08:43:04;;;;;;;1.20;0.63;;;;;;;;;;5070210;28;20226;-63
2023/03/25 08:45:34;;;;;;;1.50;0.80;;;;;;;;;;5078095;28;20301;-62
2023/03/25 08:48:04;;;;;;;3.43;1.00;;;;;;;;;;5079231;28;20206;-62
2023/03/25 08:50:32;;;;;;;2.67;0.97;;;;;;;;;;5079394;28;20232;-63
2023/03/25 08:53:00;;;;;;;1.60;0.90;;;;;;;;;;5079504;28;20202;-63
2023/03/25 08:55:28;;;;;;;3.27;1.03;;;;;;;;;;5079150;28;20570;-63
2023/03/25 08:57:56;;;;;;;4.07;1.20;;;;;;;;;;5078781;28;20218;-63
2023/03/25 09:00:26;;;;;;;4.17;1.00;;;;;;;;;;5079290;28;20230;-63
2023/03/25 09:02:57;;;;;;;3.27;1.50;;;;;;;;;;5078907;28;20313;-62
2023/03/25 09:05:25;;;;;;;2.10;1.03;;;;;;;;;;5079238;28;20213;-64
2023/03/25 09:07:53;;;;;;;2.27;1.40;;;;;;;;;;5078875;28;20201;-63
2023/03/25 09:10:22;;;;;;;4.77;1.77;;;;;;;;;;5078851;28;20338;-63
2023/03/25 09:12:50;;;;;;;3.27;1.10;;;;;;;;;;5078388;28;20223;-64
2023/03/25 09:15:18;;;;;;;2.47;0.90;;;;;;;;;;5079035;28;20238;-63
2023/03/25 09:17:46;;;;;;;4.07;1.13;;;;;;;;;;5078439;28;20668;-62
2023/03/25 09:20:17;;;;;;;2.27;0.80;;;;;;;;;;5099039;28;20228;-62
2023/03/25 09:22:45;;;;;;;2.10;1.30;;;;;;;;;;5098731;28;20274;-63
2023/03/25 09:25:13;;;;;;;2.03;0.90;;;;;;;;;;5099109;28;20212;-63
2023/03/25 09:27:41;;;;;;;2.77;1.43;;;;;;;;;;5098519;28;20201;-64
2023/03/25 09:30:10;;;;;;;4.80;1.47;;;;;;;;;;5098844;28;20257;-63
2023/03/25 09:32:38;;;;;;;3.53;1.00;;;;;;;;;;5098527;28;20686;-63
2023/03/25 09:35:06;;;;;;;1.80;1.10;;;;;;;;;;5099140;28;20216;-63
2023/03/25 09:37:36;;;;;;;5.27;0.93;;;;;;;;;;5098581;28;20205;-62
2023/03/25 09:40:04;;;;;;;1.87;1.23;;;;;;;;;;5088668;28;20305;-62
2023/03/25 09:42:40;;;;;;;3.07;1.37;;;;;;;;;;5065070;28;20563;-62
2023/03/25 09:45:17;;;;;;;6.03;1.50;;;;;;;;;;5078386;28;20237;-62
2023/03/25 09:47:52;;;;;;;2.20;1.00;;;;;;;;;;5078037;28;20237;-64
2023/03/25 09:50:21;;;;;;;3.07;1.50;;;;;;;;;;5078320;28;20230;-62
2023/03/25 09:52:52;;;;;;;6.63;1.20;;;;;;;;;;5077933;28;20661;-62
2023/03/25 09:55:24;;;;;;;3.73;1.50;;;;;;;;;;5078286;28;20288;-63
2023/03/25 09:57:55;;;;;;;2.13;1.00;;;;;;;;;;5077910;28;20238;-63
2023/03/25 10:00:23;;;;;;;3.43;1.00;;;;;;;;;;5077860;28;20226;-63
2023/03/25 10:02:54;;;;;;;2.73;1.00;;;;;;;;;;5077946;28;20313;-62
2023/03/25 10:05:34;;;;;;;5.63;1.30;;;;;;;;;;5078010;28;20218;-63
2023/03/25 10:08:09;;;;;;;2.07;0.93;;;;;;;;;;5077841;28;20233;-62
2023/03/25 10:10:40;;;;;;;1.40;1.00;;;;;;;;;;5077507;28;20312;-62
2023/03/25 10:13:12;;;;;;;2.50;0.87;;;;;;;;;;5077852;28;20206;-63
2023/03/25 10:15:43;;;;;;;3.70;0.93;;;;;;;;;;5077779;28;20244;-63
2023/03/25 10:18:27;;;;;;;2.47;1.20;;;;;;;;;;5077928;28;20233;-62
2023/03/25 10:21:00;;;;;;;2.50;0.90;;;;;;;;;;5076081;28;20712;-63
2023/03/25 10:23:34;;;;;;;2.20;0.93;;;;;;;;;;5077917;28;20222;-63
2023/03/25 10:26:04;;;;;;;1.30;0.93;;;;;;;;;;5077899;28;20210;-63
2023/03/25 10:28:38;;;;;;;2.50;1.00;;;;;;;;;;5077655;28;20271;-63
2023/03/25 10:31:07;;;;;;;2.97;1.63;;;;;;;;;;5077677;28;20233;-64
2023/03/25 10:33:36;;;;;;;3.30;1.47;;;;;;;;;;5077754;28;20221;-63
2023/03/25 10:36:05;;;;;;;12.93;7.70;;;;;;;;;;5077794;28;20213;-63
2023/03/25 10:38:35;;;;;;;8.00;4.33;;;;;;;;;;5079757;28;20209;-64
2023/03/25 10:41:20;;;;;;;2.37;1.30;;;;;;;;;;5084245;28;20222;-63
2023/03/25 10:43:48;;;;;;;3.90;1.37;;;;;;;;;;5076988;28;20271;-62
2023/03/25 10:46:18;;;;;;;2.13;1.20;;;;;;;;;;5080343;28;20237;-63
2023/03/25 10:48:47;;;;;;;7.23;1.40;;;;;;;;;;5084088;28;20206;-63
2023/03/25 10:51:16;;;;;;;1.43;1.27;;;;;;;;;;5084241;28;20257;-63
2023/03/25 10:53:47;;;;;;;5.47;1.00;;;;;;;;;;5084340;28;20202;-62
2023/03/25 10:56:16;;;;;;;2.83;1.03;;;;;;;;;;5084447;28;20289;-62
2023/03/25 10:58:46;;;;;;;4.23;1.00;;;;;;;;;;5083986;28;20212;-64
2023/03/25 11:01:16;;;;;;;3.90;1.13;;;;;;;;;;5084014;28;20233;-64
2023/03/25 11:03:45;;;;;;;2.40;1.07;;;;;;;;;;5084298;28;20238;-63
2023/03/25 11:06:21;;;;;;;2.53;1.13;;;;;;;;;;5083913;28;20217;-64
2023/03/25 11:09:11;;;;;;;2.07;1.13;;;;;;;;;;5084015;28;20233;-63
2023/03/25 11:11:39;;;;;;;4.43;1.27;;;;;;;;;;5083919;28;20309;-62
2023/03/25 11:14:07;;;;;;;1.17;0.93;;;;;;;;;;5083789;28;20323;-62
2023/03/25 11:16:37;;;;;;;2.10;1.30;;;;;;;;;;5083714;28;20614;-63
2023/03/25 11:19:05;;;;;;;2.53;1.30;;;;;;;;;;5083732;28;20252;-64
2023/03/25 11:21:33;;;;;;;1.97;1.40;;;;;;;;;;5083721;28;20257;-63
2023/03/25 11:24:06;;;;;;;3.47;1.00;;;;;;;;;;5083711;28;20257;-63
2023/03/25 11:26:37;;;;;;;3.50;1.00;;;;;;;;;;5083685;28;20701;-63
2023/03/25 11:29:07;;;;;;;3.43;1.20;;;;;;;;;;5083648;28;20237;-63
2023/03/25 11:31:35;;;;;;;4.60;1.20;;;;;;;;;;5083445;28;20675;-62
2023/03/25 11:34:04;;;;;;;2.13;1.07;;;;;;;;;;5084138;28;20236;-62
2023/03/25 11:36:33;;;;;;;2.20;1.03;;;;;;;;;;5083840;28;20681;-63
2023/03/25 11:39:03;;;;;;;3.00;1.10;;;;;;;;;;5083862;28;20209;-64
2023/03/25 11:41:33;;;;;;;3.27;1.20;;;;;;;;;;5083835;28;20233;-63
2023/03/25 11:44:02;;;;;;;3.97;1.33;;;;;;;;;;5081836;28;20245;-63
2023/03/25 11:46:30;;;;;;;2.17;1.10;;;;;;;;;;5083202;28;20216;-62
2023/03/25 11:49:07;;;;;;;2.57;1.20;;;;;;;;;;5082120;28;20198;-62
2023/03/25 11:51:35;;;;;;;5.63;1.03;;;;;;;;;;5080662;28;20222;-63
2023/03/25 11:54:07;;;;;;;1.43;1.03;;;;;;;;;;5078990;28;20229;-63
2023/03/25 11:56:37;;;;;;;1.53;0.80;;;;;;;;;;5079424;28;20211;-64
2023/03/25 11:59:08;;;;;;;1.80;0.80;;;;;;;;;;5079519;28;20198;-64
2023/03/25 12:01:38;;;;;;;1.63;0.80;;;;;;;;;;5079079;28;20198;-63
2023/03/25 12:04:08;;;;;;;0.80;0.80;;;;;;;;;;5080593;28;20229;-64
2023/03/25 12:06:36;;;;;;;1.93;0.83;;;;;;;;;;5081576;28;20202;-62
2023/03/25 12:09:08;;;;;;;3.43;1.03;;;;;;;;;;5098123;28;20210;-62
2023/03/25 12:11:39;;;;;;;1.03;1.00;;;;;;;;;;5100476;28;20240;-63
2023/03/25 12:14:23;;;;;;;8.23;5.90;;;;;;;;;;5100212;28;20197;-63
2023/03/25 12:16:55;;;;;;;2.70;1.57;;;;;;;;;;5099987;28;20289;-63
2023/03/25 12:19:27;;;;;;;4.30;1.23;;;;;;;;;;5100012;28;20760;-63
2023/03/25 12:22:02;;;;;;;1.70;0.70;;;;;;;;;;5100238;28;20205;-63
2023/03/25 12:24:37;;;;;;;3.33;0.87;;;;;;;;;;5090364;28;20609;-63
2023/03/25 12:27:16;;;;;;;1.70;1.00;;;;;;;;;;5080424;28;20194;-63
2023/03/25 12:29:47;;;;;;;1.67;0.93;;;;;;;;;;5078086;28;20221;-63
2023/03/25 12:32:20;;;;;;;2.53;1.37;;;;;;;;;;5073369;28;20203;-63
2023/03/25 12:34:54;;;;;;;5.27;1.10;;;;;;;;;;5079528;28;20558;-63
2023/03/25 12:37:29;;;;;;;2.17;1.37;;;;;;;;;;5087119;28;20206;-62
2023/03/25 12:40:08;;;;;;;3.80;1.33;;;;;;;;;;5087023;28;20241;-62
2023/03/25 12:42:42;;;;;;;3.10;1.63;;;;;;;;;;5080988;28;20242;-62
2023/03/25 12:45:28;;;;;;;3.53;1.20;;;;;;;;;;5084676;28;20218;-63
2023/03/25 12:47:59;;;;;;;3.80;1.60;;;;;;;;;;5086467;28;20257;-64
2023/03/25 12:50:37;;;;;;;3.83;1.20;;;;;;;;;;5079963;28;20289;-62
2023/03/25 12:53:12;;;;;;;2.63;1.10;;;;;;;;;;5084295;28;20204;-62
2023/03/25 12:55:46;;;;;;;2.37;1.17;;;;;;;;;;5080235;28;20201;-65
2023/03/25 12:58:28;;;;;;;2.40;1.10;;;;;;;;;;5083469;28;20285;-65
2023/03/25 13:00:59;;;;;;;2.23;1.27;;;;;;;;;;5086355;28;20225;-64
2023/03/25 13:03:45;;;;;;;2.73;0.77;;;;;;;;;;5080440;28;20249;-63
2023/03/25 13:06:17;;;;;;;2.83;0.70;;;;;;;;;;5078055;28;20206;-64
2023/03/25 13:08:48;;;;;;;2.33;1.17;;;;;;;;;;5077795;28;20206;-65
2023/03/25 13:11:18;;;;;;;1.00;0.83;;;;;;;;;;5077612;28;20249;-65
2023/03/25 13:13:49;;;;;;;3.30;0.90;;;;;;;;;;5077453;28;20210;-65
2023/03/25 13:16:19;;;;;;;4.17;1.00;;;;;;;;;;5077928;28;20241;-64
2023/03/25 13:18:50;;;;;;;2.17;0.90;;;;;;;;;;5078040;28;20293;-63
2023/03/25 13:21:22;;;;;;;3.63;0.87;;;;;;;;;;5066188;28;20416;-63
2023/03/25 13:23:53;;;;;;;2.77;1.10;;;;;;;;;;5077530;28;20274;-63
2023/03/25 13:26:21;;;;;;;0.80;0.80;;;;;;;;;;5077522;28;20293;-63
2023/03/25 13:28:53;;;;;;;1.80;1.03;;;;;;;;;;5077530;28;20205;-63
2023/03/25 13:31:22;;;;;;;1.87;1.10;;;;;;;;;;5063915;28;20273;-63
2023/03/25 13:33:53;;;;;;;1.20;1.10;;;;;;;;;;5077526;28;20289;-63
2023/03/25 13:36:25;;;;;;;2.47;1.30;;;;;;;;;;5077743;28;20206;-63
2023/03/25 13:38:55;;;;;;;1.50;0.93;;;;;;;;;;5077270;28;20260;-63
2023/03/25 13:41:25;;;;;;;2.93;1.20;;;;;;;;;;5077331;28;20233;-63
2023/03/25 13:44:00;;;;;;;1.53;1.07;;;;;;;;;;5080568;28;20204;-63
2023/03/25 13:46:31;;;;;;;2.17;1.07;;;;;;;;;;5097330;28;20574;-63
2023/03/25 13:49:02;;;;;;;1.63;0.93;;;;;;;;;;5097170;28;20683;-60
2023/03/25 13:51:30;;;;;;;2.40;1.20;;;;;;;;;;5085670;28;20206;-63
2023/03/25 13:53:59;;;;;;;2.03;1.20;;;;;;;;;;5070785;28;20214;-64
2023/03/25 13:56:41;;;;;;;2.43;1.10;;;;;;;;;;5077046;28;20210;-64
2023/03/25 13:59:24;;;;;;;1.20;1.03;;;;;;;;;;5076721;28;20681;-63
2023/03/25 14:02:03;;;;;;;3.17;1.27;;;;;;;;;;5077348;28;20198;-63
2023/03/25 14:04:40;;;;;;;2.20;1.20;;;;;;;;;;5064155;28;20651;-63
2023/03/25 14:07:23;;;;;;;2.93;1.20;;;;;;;;;;5074892;28;20197;-62
2023/03/25 14:10:00;;;;;;;2.67;1.40;;;;;;;;;;5074645;28;20597;-62
2023/03/25 14:12:30;;;;;;;3.00;1.20;;;;;;;;;;5076274;28;20213;-61
2023/03/25 14:15:01;;;;;;;2.20;1.20;;;;;;;;;;5076128;28;20619;-64
2023/03/25 14:17:29;;;;;;;1.40;1.30;;;;;;;;;;5076410;28;20630;-61
2023/03/25 14:19:58;;;;;;;1.83;1.20;;;;;;;;;;5078706;28;20343;-62
2023/03/25 14:22:27;;;;;;;1.93;1.00;;;;;;;;;;5076576;28;20205;-61
2023/03/25 14:24:56;;;;;;;2.60;1.70;;;;;;;;;;5076439;28;20309;-62
2023/03/25 14:27:28;;;;;;;2.10;1.40;;;;;;;;;;5085159;28;20277;-62
2023/03/25 14:29:58;;;;;;;1.50;0.90;;;;;;;;;;5085534;28;20253;-63
2023/03/25 14:32:36;;;;;;;3.40;1.30;;;;;;;;;;5070991;28;20202;-63
2023/03/25 14:35:22;;;;;;;1.43;1.30;;;;;;;;;;5069773;28;20208;-63
2023/03/25 14:37:50;;;;;;;1.73;1.37;;;;;;;;;;5077884;28;20288;-61
2023/03/25 14:40:37;;;;;;;2.93;1.43;;;;;;;;;;5076595;28;20253;-61
2023/03/25 14:43:23;;;;;;;0.83;0.80;;;;;;;;;;5063603;28;20205;-63
2023/03/25 14:45:57;;;;;;;1.13;1.13;;;;;;;;;;5090725;28;20232;-61
2023/03/25 14:48:33;;;;;;;0.77;0.73;;;;;;;;;;5093295;28;20606;-61
2023/03/25 14:51:25;;;;;;;2.37;1.40;;;;;;;;;;5086139;28;20212;-63
2023/03/25 14:53:55;;;;;;;1.23;1.10;;;;;;;;;;5071898;28;20199;-64
2023/03/25 14:56:24;;;;;;;2.13;1.27;;;;;;;;;;5083023;28;20251;-63
2023/03/25 14:58:54;;;;;;;1.27;1.00;;;;;;;;;;5076851;28;20236;-63
2023/03/25 15:01:28;;;;;;;1.53;1.30;;;;;;;;;;5074401;28;20221;-62
2023/03/25 15:04:10;;;;;;;1.10;0.80;;;;;;;;;;5077452;28;20236;-63